FAGG

George Airport

George, South Africa
METAR FAGG 170611Z 08004KT 040V110 9999 FEW035 16/11 Q1022
Observed Flight Rules
Oct-17 @ 06:11 UTC (13 minutes ago) Visual Flight Rules
Wind Visibility Clouds
80° at 4 knots 10,000+ meters
  • Few at 3,500' AGL
Temperatures Readings
Current 16°C / 61°F
Dewpoint 11°C / 52°F
Humidity 72%
Altimeter 30.18" Hg
Pressure 1022 hPa
Elevation 193
METAR FAGG 170611Z 08004KT 040V110 9999 FEW035 16/11 Q1022
Observed Flight Rules
Oct-17 @ 06:11 UTC
(13 minutes ago)
VFR
Wind Visibility
80° at 4 knots 10,000+ meters
Clouds
  • Few at 3,500' AGL
Temperature Dewpoint
16°C / 61°F 11°C / 52°F
Humidity Altimeter Pressure
72% 30.18" Hg 1022 hPa